createdAt,value
2018-04-14T00:02:18.792Z,11.97
2018-04-14T00:04:46.467Z,12.60
2018-04-14T00:07:14.528Z,12.17
2018-04-14T00:09:42.341Z,11.63
2018-04-14T00:12:11.004Z,11.37
2018-04-14T00:14:38.696Z,11.97
2018-04-14T00:17:06.527Z,12.17
2018-04-14T00:19:34.290Z,12.30
2018-04-14T00:22:01.989Z,12.83
2018-04-14T00:24:30.420Z,13.93
2018-04-14T00:26:58.904Z,13.17
2018-04-14T00:29:26.929Z,12.60
2018-04-14T00:31:55.344Z,12.23
2018-04-14T00:34:23.134Z,13.70
2018-04-14T00:36:50.968Z,12.40
2018-04-14T00:39:18.605Z,13.77
2018-04-14T00:41:47.239Z,13.40
2018-04-14T00:44:15.115Z,12.63
2018-04-14T00:46:42.768Z,12.63
2018-04-14T00:49:10.405Z,13.97
2018-04-14T00:51:38.276Z,12.80
2018-04-14T00:54:05.944Z,12.70
2018-04-14T00:56:33.725Z,13.47
2018-04-14T00:59:01.587Z,14.57
2018-04-14T01:01:29.236Z,15.37
2018-04-14T01:03:56.880Z,15.13
2018-04-14T01:06:24.989Z,15.00
2018-04-14T01:08:52.639Z,15.40
2018-04-14T01:11:20.276Z,15.20
2018-04-14T01:13:48.480Z,14.87
2018-04-14T01:16:16.140Z,14.67
2018-04-14T01:18:43.777Z,13.93
2018-04-14T01:21:11.473Z,15.20
2018-04-14T01:23:39.341Z,14.40
2018-04-14T01:26:06.997Z,14.67
2018-04-14T01:28:34.845Z,17.00
2018-04-14T01:31:02.633Z,19.37
2018-04-14T01:33:30.434Z,20.00
2018-04-14T01:35:58.904Z,21.40
2018-04-14T01:38:26.736Z,22.13
2018-04-14T01:40:54.385Z,21.73
2018-04-14T01:43:24.738Z,20.43
2018-04-14T01:45:52.508Z,19.47
2018-04-14T01:48:20.150Z,18.87
2018-04-14T01:50:48.004Z,18.67
2018-04-14T01:53:15.640Z,16.83
2018-04-14T01:55:44.045Z,15.23
2018-04-14T01:58:11.729Z,15.10
2018-04-14T02:00:39.401Z,15.70
2018-04-14T02:03:07.251Z,15.37
2018-04-14T02:05:35.321Z,14.90
2018-04-14T02:08:03.186Z,15.60
2018-04-14T02:10:31.049Z,14.53
2018-04-14T02:12:58.748Z,14.00
2018-04-14T02:15:26.577Z,15.47
2018-04-14T02:17:54.224Z,14.67
2018-04-14T02:20:22.083Z,14.83
2018-04-14T02:22:49.720Z,14.87
2018-04-14T02:25:18.124Z,14.50
2018-04-14T02:27:45.992Z,14.33
2018-04-14T02:30:13.776Z,14.63
2018-04-14T02:32:41.539Z,13.73
2018-04-14T02:35:09.389Z,15.50
2018-04-14T02:37:37.180Z,14.67
2018-04-14T02:40:04.942Z,15.00
2018-04-14T02:42:32.639Z,15.20
2018-04-14T02:45:01.812Z,16.10
2018-04-14T02:47:29.476Z,17.50
2018-04-14T02:49:57.200Z,19.83
2018-04-14T02:52:25.817Z,28.87
2018-04-14T02:54:53.465Z,23.90
2018-04-14T02:57:21.456Z,24.83
2018-04-14T02:59:49.109Z,25.17
2018-04-14T03:02:16.984Z,23.73
2018-04-14T03:04:45.055Z,23.53
2018-04-14T03:07:12.709Z,23.63
2018-04-14T03:09:40.425Z,21.80
2018-04-14T03:12:08.881Z,20.83
2018-04-14T03:14:36.729Z,20.47
2018-04-14T03:17:04.400Z,19.20
2018-04-14T03:19:32.256Z,16.77
2018-04-14T03:21:59.913Z,17.93
2018-04-14T03:24:27.552Z,18.93
2018-04-14T03:26:55.547Z,17.17
2018-04-14T03:29:23.410Z,23.50
2018-04-14T03:31:51.699Z,22.97
2018-04-14T03:34:19.763Z,18.93
2018-04-14T03:36:47.626Z,20.47
2018-04-14T03:39:15.491Z,19.87
2018-04-14T03:41:43.541Z,19.17
2018-04-14T03:44:11.179Z,20.20
2018-04-14T03:46:39.586Z,19.90
2018-04-14T03:49:07.465Z,21.50
2018-04-14T03:51:35.338Z,21.10
2018-04-14T03:54:03.000Z,21.30
2018-04-14T03:56:30.701Z,20.37
2018-04-14T03:58:59.117Z,18.57
2018-04-14T04:01:26.756Z,19.73
2018-04-14T04:03:55.372Z,19.07
2018-04-14T04:06:23.015Z,20.03
2018-04-14T04:08:50.665Z,20.53
2018-04-14T04:11:19.439Z,19.63
2018-04-14T04:13:47.845Z,19.23
2018-04-14T04:16:15.485Z,18.27
2018-04-14T04:19:04.884Z,18.13
2018-04-14T04:21:44.551Z,19.33
2018-04-14T04:24:24.181Z,21.70
2018-04-14T04:26:51.834Z,18.73
2018-04-14T04:29:19.476Z,20.57
2018-04-14T04:31:48.409Z,19.33
2018-04-14T04:34:16.272Z,19.57
2018-04-14T04:36:43.922Z,18.47
2018-04-14T04:39:12.009Z,19.13
2018-04-14T04:41:39.663Z,17.43
2018-04-14T04:44:07.308Z,18.27
2018-04-14T04:46:35.008Z,22.63
2018-04-14T04:49:02.664Z,31.67
2018-04-14T04:51:30.474Z,23.80
2018-04-14T04:53:59.407Z,14.80
2018-04-14T04:56:27.052Z,12.47
2018-04-14T04:58:54.879Z,11.37
2018-04-14T05:01:23.345Z,12.07
2018-04-14T05:03:50.988Z,12.43
2018-04-14T05:06:18.639Z,12.90
2018-04-14T05:08:46.506Z,15.03
2018-04-14T05:11:14.153Z,21.40
2018-04-14T05:13:41.936Z,30.53
2018-04-14T05:16:09.799Z,29.97
2018-04-14T05:18:37.663Z,41.53
2018-04-14T05:21:05.535Z,27.60
2018-04-14T05:23:33.342Z,24.03
2018-04-14T05:26:01.876Z,26.67
2018-04-14T05:28:29.946Z,24.77
2018-04-14T05:30:57.742Z,28.83
2018-04-14T05:33:26.892Z,26.23
2018-04-14T05:35:54.686Z,22.63
2018-04-14T05:38:22.392Z,20.53
2018-04-14T05:40:51.027Z,17.93
2018-04-14T05:43:18.681Z,14.30
2018-04-14T05:45:46.500Z,11.47
2018-04-14T05:48:15.132Z,13.03
2018-04-14T05:50:42.781Z,11.80
2018-04-14T05:53:11.179Z,11.00
2018-04-14T05:55:38.843Z,11.30
2018-04-14T05:58:06.642Z,9.67
2018-04-14T06:00:35.115Z,10.00
2018-04-14T06:03:02.761Z,11.40
2018-04-14T06:05:30.534Z,10.77
2018-04-14T06:07:59.181Z,10.20
2018-04-14T06:10:28.329Z,10.60
2018-04-14T06:12:55.965Z,9.13
2018-04-14T06:15:24.786Z,8.80
2018-04-14T06:17:52.435Z,9.53
2018-04-14T06:20:21.454Z,9.23
2018-04-14T06:22:49.327Z,9.60
2018-04-14T06:25:16.994Z,8.73
2018-04-14T06:27:44.854Z,9.73
2018-04-14T06:30:12.552Z,9.43
2018-04-14T06:32:41.171Z,8.80
2018-04-14T06:35:09.781Z,8.67
2018-04-14T06:37:39.124Z,8.67
2018-04-14T06:40:06.768Z,29.37
2018-04-14T06:42:35.180Z,8.27
2018-04-14T06:45:03.049Z,8.30
2018-04-14T06:47:30.930Z,10.00
2018-04-14T06:49:58.792Z,9.83
2018-04-14T06:52:26.668Z,10.13
2018-04-14T06:54:54.329Z,8.77
2018-04-14T06:57:21.975Z,13.13
2018-04-14T06:59:49.835Z,9.03
2018-04-14T07:02:17.478Z,8.70
2018-04-14T07:04:45.116Z,8.87
2018-04-14T07:07:12.944Z,8.50
2018-04-14T07:09:40.584Z,8.07
2018-04-14T07:12:08.302Z,9.67
2018-04-14T07:14:36.950Z,8.70
2018-04-14T07:17:05.325Z,9.90
2018-04-14T07:19:32.965Z,8.63
2018-04-14T07:22:00.758Z,10.60
2018-04-14T07:24:28.461Z,10.67
2018-04-14T07:26:56.886Z,10.50
2018-04-14T07:29:24.590Z,10.10
2018-04-14T07:31:53.969Z,10.67
2018-04-14T07:34:21.727Z,10.50
2018-04-14T07:36:49.566Z,17.00
2018-04-14T07:39:17.197Z,9.90
2018-04-14T07:41:45.653Z,10.63
2018-04-14T07:44:13.626Z,10.27
2018-04-14T07:46:41.273Z,12.23
2018-04-14T07:49:08.961Z,10.83
2018-04-14T07:51:37.824Z,10.67
2018-04-14T07:54:05.525Z,10.73
2018-04-14T07:56:34.161Z,10.10
2018-04-14T07:59:02.134Z,13.03
2018-04-14T08:01:29.898Z,11.63
2018-04-14T08:03:57.760Z,11.23
2018-04-14T08:06:25.469Z,13.83
2018-04-14T08:08:53.930Z,12.10
2018-04-14T08:11:21.629Z,12.57
2018-04-14T08:13:49.412Z,12.53
2018-04-14T08:16:17.107Z,12.40
2018-04-14T08:18:44.860Z,13.20
2018-04-14T08:21:12.645Z,11.90
2018-04-14T08:23:40.289Z,12.27
2018-04-14T08:26:07.929Z,12.07
2018-04-14T08:28:35.675Z,12.30
2018-04-14T08:31:03.377Z,12.40
2018-04-14T08:33:31.018Z,11.27
2018-04-14T08:35:58.845Z,16.17
2018-04-14T08:38:27.281Z,11.10
2018-04-14T08:40:54.940Z,11.63
2018-04-14T08:43:22.629Z,12.10
2018-04-14T08:45:50.569Z,12.17
2018-04-14T08:48:18.223Z,11.00
2018-04-14T08:50:46.181Z,11.77
2018-04-14T08:53:13.820Z,12.13
2018-04-14T08:55:42.227Z,11.13
2018-04-14T08:58:09.916Z,11.33
2018-04-14T09:00:37.559Z,11.50
2018-04-14T09:03:05.205Z,12.03
2018-04-14T09:05:33.064Z,12.17
2018-04-14T09:08:00.853Z,12.40
2018-04-14T09:10:29.113Z,12.40
2018-04-14T09:12:57.000Z,12.47
2018-04-14T09:15:24.857Z,13.90
2018-04-14T09:17:52.505Z,13.83
2018-04-14T09:20:20.577Z,14.03
2018-04-14T09:22:48.358Z,14.10
2018-04-14T09:25:16.017Z,13.50
2018-04-14T09:27:43.799Z,12.73
2018-04-14T09:30:11.442Z,13.33
2018-04-14T09:32:39.081Z,11.97
2018-04-14T09:35:08.753Z,12.40
2018-04-14T09:37:37.401Z,12.63
2018-04-14T09:40:05.065Z,12.87
2018-04-14T09:42:32.881Z,11.97
2018-04-14T09:45:00.529Z,11.80
2018-04-14T09:47:28.180Z,12.47
2018-04-14T09:49:55.914Z,15.60
2018-04-14T09:52:24.333Z,13.10
2018-04-14T09:54:52.117Z,12.57
2018-04-14T09:57:20.071Z,12.13
2018-04-14T09:59:47.709Z,13.03
2018-04-14T10:02:15.378Z,13.63
2018-04-14T10:04:43.222Z,12.10
2018-04-14T10:07:11.697Z,12.20
2018-04-14T10:09:39.392Z,12.83
2018-04-14T10:12:07.484Z,13.77
2018-04-14T10:14:35.155Z,13.97
2018-04-14T10:17:02.797Z,15.87
2018-04-14T10:19:31.549Z,21.33
2018-04-14T10:22:00.030Z,18.53
2018-04-14T10:24:28.465Z,15.90
2018-04-14T10:26:56.333Z,13.53
2018-04-14T10:29:24.049Z,12.77
2018-04-14T10:31:52.484Z,13.80
2018-04-14T10:34:21.137Z,17.47
2018-04-14T10:36:48.840Z,22.70
2018-04-14T10:39:16.526Z,13.10
2018-04-14T10:41:45.348Z,13.20
2018-04-14T10:44:12.992Z,13.30
2018-04-14T10:46:40.639Z,13.20
2018-04-14T10:49:09.305Z,12.43
2018-04-14T10:51:36.980Z,11.97
2018-04-14T10:54:05.459Z,12.70
2018-04-14T10:56:33.996Z,11.50
2018-04-14T10:59:01.660Z,12.90
2018-04-14T11:01:29.301Z,9.77
2018-04-14T11:03:57.338Z,8.47
2018-04-14T11:06:25.797Z,8.73
2018-04-14T11:08:53.507Z,10.07
2018-04-14T11:11:21.934Z,10.10
2018-04-14T11:13:49.584Z,12.57
2018-04-14T11:16:17.390Z,10.70
2018-04-14T11:18:45.169Z,10.63
2018-04-14T11:21:12.830Z,10.17
2018-04-14T11:23:40.468Z,9.80
2018-04-14T11:26:09.311Z,9.50
2018-04-14T11:28:36.977Z,7.37
2018-04-14T11:31:04.681Z,7.53
2018-04-14T11:33:33.512Z,13.20
2018-04-14T11:36:01.205Z,7.77
2018-04-14T11:38:29.105Z,7.13
2018-04-14T11:40:57.569Z,7.10
2018-04-14T11:43:25.313Z,7.83
2018-04-14T11:45:53.010Z,7.60
2018-04-14T11:48:21.481Z,8.67
2018-04-14T11:50:49.149Z,8.87
2018-04-14T11:53:16.785Z,8.73
2018-04-14T11:55:44.624Z,8.37
2018-04-14T11:58:12.264Z,7.47
2018-04-14T12:00:39.932Z,8.53
2018-04-14T12:03:08.021Z,6.80
2018-04-14T12:05:35.796Z,5.90
2018-04-14T12:08:03.449Z,9.40
2018-04-14T12:10:31.309Z,6.73
2018-04-14T12:12:59.088Z,6.17
2018-04-14T12:15:26.733Z,7.00
2018-04-14T12:17:54.513Z,6.97
2018-04-14T12:20:22.157Z,7.83
2018-04-14T12:22:49.797Z,6.37
2018-04-14T12:25:18.392Z,8.80
2018-04-14T12:27:46.031Z,7.20
2018-04-14T12:30:15.135Z,7.73
2018-04-14T12:32:43.023Z,6.23
2018-04-14T12:35:10.660Z,6.57
2018-04-14T12:37:38.301Z,6.73
2018-04-14T12:40:06.165Z,6.63
2018-04-14T12:42:34.580Z,7.47
2018-04-14T12:45:02.476Z,6.63
2018-04-14T12:47:30.338Z,6.13
2018-04-14T12:49:57.998Z,6.83
2018-04-14T12:52:25.767Z,6.60
2018-04-14T12:54:53.617Z,7.43
2018-04-14T12:57:21.256Z,6.57
2018-04-14T12:59:49.664Z,7.37
2018-04-14T13:02:17.536Z,6.07
2018-04-14T13:04:45.185Z,6.10
2018-04-14T13:07:12.825Z,6.23
2018-04-14T13:09:40.600Z,6.40
2018-04-14T13:12:08.325Z,6.87
2018-04-14T13:14:36.873Z,6.20
2018-04-14T13:17:04.637Z,6.57
2018-04-14T13:19:32.400Z,8.07
2018-04-14T13:22:01.088Z,8.40
2018-04-14T13:24:29.029Z,8.90
2018-04-14T13:26:56.743Z,8.43
2018-04-14T13:29:24.575Z,6.50
2018-04-14T13:31:52.410Z,6.43
2018-04-14T13:34:20.054Z,6.73
2018-04-14T13:36:47.693Z,7.17
2018-04-14T13:39:15.802Z,7.07
2018-04-14T13:41:43.805Z,11.30
2018-04-14T13:44:12.212Z,7.47
2018-04-14T13:46:41.143Z,7.40
2018-04-14T13:49:08.797Z,6.63
2018-04-14T13:51:36.672Z,7.17
2018-04-14T13:54:04.616Z,6.33
2018-04-14T13:56:32.397Z,7.50
2018-04-14T13:59:00.272Z,7.17
2018-04-14T14:01:28.253Z,6.00
2018-04-14T14:03:55.888Z,6.60
2018-04-14T14:06:23.666Z,7.03
2018-04-14T14:08:51.832Z,7.20
2018-04-14T14:11:19.477Z,7.27
2018-04-14T14:13:47.135Z,7.87
2018-04-14T14:16:15.005Z,9.47
2018-04-14T14:18:42.649Z,6.53
2018-04-14T14:21:11.056Z,6.40
2018-04-14T14:23:38.916Z,6.17
2018-04-14T14:26:06.700Z,6.10
2018-04-14T14:28:34.559Z,5.90
2018-04-14T14:31:02.545Z,10.50
2018-04-14T14:33:30.236Z,5.83
2018-04-14T14:35:58.032Z,6.67
2018-04-14T14:38:25.732Z,7.37
2018-04-14T14:40:54.149Z,9.87
2018-04-14T14:43:21.790Z,6.50
2018-04-14T14:45:50.728Z,7.17
2018-04-14T14:48:18.388Z,6.23
2018-04-14T14:50:46.256Z,5.83
2018-04-14T14:53:14.912Z,5.50
2018-04-14T14:55:42.580Z,5.97
2018-04-14T14:58:10.223Z,6.23
2018-04-14T15:00:37.909Z,6.17
2018-04-14T15:03:05.550Z,5.20
2018-04-14T15:05:33.426Z,6.50
2018-04-14T15:08:01.136Z,6.30
2018-04-14T15:10:29.534Z,5.07
2018-04-14T15:12:57.329Z,5.93
2018-04-14T15:15:25.172Z,6.03
2018-04-14T15:17:52.894Z,5.53
2018-04-14T15:20:21.445Z,6.53
2018-04-14T15:22:49.241Z,5.47
2018-04-14T15:25:17.880Z,6.17
2018-04-14T15:27:45.528Z,6.03
2018-04-14T15:30:13.418Z,5.70
2018-04-14T15:32:41.057Z,6.57
2018-04-14T15:35:08.692Z,6.43
2018-04-14T15:37:37.323Z,5.80
2018-04-14T15:40:05.187Z,6.20
2018-04-14T15:42:33.048Z,7.60
2018-04-14T15:45:01.119Z,11.93
2018-04-14T15:47:28.769Z,12.23
2018-04-14T15:49:56.409Z,12.33
2018-04-14T15:52:24.871Z,7.53
2018-04-14T15:54:53.281Z,6.40
2018-04-14T15:57:20.912Z,6.70
2018-04-14T15:59:49.525Z,7.47
2018-04-14T16:02:17.161Z,8.17
2018-04-14T16:04:45.561Z,7.87
2018-04-14T16:07:13.253Z,8.30
2018-04-14T16:09:40.902Z,12.43
2018-04-14T16:12:08.544Z,12.87
2018-04-14T16:14:36.646Z,10.03
2018-04-14T16:17:05.329Z,9.63
2018-04-14T16:19:33.059Z,7.87
2018-04-14T16:22:00.860Z,7.33
2018-04-14T16:24:32.218Z,6.90
2018-04-14T16:27:00.931Z,7.30
2018-04-14T16:29:28.730Z,7.50
2018-04-14T16:31:56.377Z,7.93
2018-04-14T16:34:24.969Z,7.00
2018-04-14T16:36:53.078Z,7.23
2018-04-14T16:39:20.726Z,8.53
2018-04-14T16:41:48.372Z,6.87
2018-04-14T16:44:17.395Z,6.70
2018-04-14T16:46:45.049Z,7.13
2018-04-14T16:49:12.685Z,7.17
2018-04-14T16:51:41.374Z,10.03
2018-04-14T16:54:10.010Z,8.67
2018-04-14T16:56:37.685Z,7.43
2018-04-14T16:59:05.368Z,6.77
2018-04-14T17:01:33.062Z,7.10
2018-04-14T17:04:00.705Z,7.20
2018-04-14T17:06:29.165Z,7.03
2018-04-14T17:08:56.814Z,6.67
2018-04-14T17:11:25.225Z,7.00
2018-04-14T17:13:53.681Z,6.70
2018-04-14T17:16:21.327Z,7.40
2018-04-14T17:18:49.025Z,7.60
2018-04-14T17:21:16.697Z,7.67
2018-04-14T17:23:45.328Z,8.37
2018-04-14T17:26:12.976Z,8.27
2018-04-14T17:28:41.050Z,8.40
2018-04-14T17:31:08.701Z,8.90
2018-04-14T17:33:36.483Z,9.83
2018-04-14T17:36:04.540Z,9.77
2018-04-14T17:38:32.188Z,10.27
2018-04-14T17:40:59.984Z,10.80
2018-04-14T17:43:27.940Z,10.80
2018-04-14T17:45:55.581Z,9.30
2018-04-14T17:48:23.225Z,9.60
2018-04-14T17:50:51.685Z,10.10
2018-04-14T17:53:19.917Z,9.43
2018-04-14T17:55:47.633Z,8.90
2018-04-14T17:58:16.104Z,8.30
2018-04-14T18:00:44.536Z,8.27
2018-04-14T18:03:12.418Z,9.17
2018-04-14T18:05:40.121Z,8.37
2018-04-14T18:08:08.529Z,8.70
2018-04-14T18:10:36.323Z,8.40
2018-04-14T18:13:04.026Z,8.20
2018-04-14T18:15:32.575Z,7.63
2018-04-14T18:18:00.229Z,7.60
2018-04-14T18:20:27.910Z,8.27
2018-04-14T18:22:55.555Z,8.50
2018-04-14T18:25:23.193Z,7.50
2018-04-14T18:27:50.889Z,7.97
2018-04-14T18:30:18.528Z,7.70
2018-04-14T18:32:46.182Z,8.80
2018-04-14T18:35:13.869Z,8.23
2018-04-14T18:37:41.728Z,7.13
2018-04-14T18:40:09.601Z,8.43
2018-04-14T18:42:37.464Z,7.53
2018-04-14T18:45:05.134Z,7.30
2018-04-14T18:47:32.784Z,7.20
2018-04-14T18:50:00.477Z,7.43
2018-04-14T18:52:28.311Z,7.23
2018-04-14T18:54:56.185Z,7.80
2018-04-14T18:57:24.289Z,7.03
2018-04-14T18:59:52.946Z,7.47
2018-04-14T19:02:20.854Z,7.33
2018-04-14T19:04:48.776Z,8.43
2018-04-14T19:07:16.639Z,8.10
2018-04-14T19:09:44.284Z,7.13
2018-04-14T19:12:12.077Z,7.87
2018-04-14T19:14:39.725Z,7.90
2018-04-14T19:17:08.134Z,7.43
2018-04-14T19:19:36.234Z,7.40
2018-04-14T19:22:03.889Z,6.90
2018-04-14T19:24:31.559Z,7.43
2018-04-14T19:26:59.353Z,7.43
2018-04-14T19:29:28.507Z,7.27
2018-04-14T19:31:56.192Z,7.50
2018-04-14T19:34:24.241Z,6.97
2018-04-14T19:36:51.881Z,8.30
2018-04-14T19:39:20.290Z,6.50
2018-04-14T19:41:48.122Z,7.47
2018-04-14T19:44:16.520Z,7.07
2018-04-14T19:46:44.307Z,7.80
2018-04-14T19:49:12.070Z,7.07
2018-04-14T19:51:39.718Z,7.10
2018-04-14T19:54:07.361Z,7.13
2018-04-14T19:56:35.058Z,8.30
2018-04-14T19:59:02.917Z,7.20
2018-04-14T20:01:30.790Z,7.47
2018-04-14T20:03:58.496Z,7.23
2018-04-14T20:06:26.933Z,7.57
2018-04-14T20:08:54.609Z,7.67
2018-04-14T20:11:22.647Z,7.87
2018-04-14T20:13:50.424Z,7.67
2018-04-14T20:16:18.078Z,7.87
2018-04-14T20:18:45.951Z,8.00
2018-04-14T20:21:13.629Z,8.13
2018-04-14T20:23:41.480Z,8.03
2018-04-14T20:26:09.185Z,9.17
2018-04-14T20:28:37.593Z,8.73
2018-04-14T20:31:05.404Z,8.87
2018-04-14T20:33:33.240Z,8.97
2018-04-14T20:36:00.890Z,10.00
2018-04-14T20:38:28.678Z,8.87
2018-04-14T20:40:56.540Z,8.87
2018-04-14T20:43:24.416Z,9.60
2018-04-14T20:45:52.060Z,8.23
2018-04-14T20:48:19.948Z,9.37
2018-04-14T20:50:47.608Z,9.33
2018-04-14T20:53:15.313Z,9.63
2018-04-14T20:55:43.948Z,8.67
2018-04-14T20:58:11.597Z,8.83
2018-04-14T21:00:39.237Z,9.73
2018-04-14T21:03:07.857Z,9.07
2018-04-14T21:05:35.501Z,9.93
2018-04-14T21:08:03.285Z,9.40
2018-04-14T21:10:30.990Z,9.37
2018-04-14T21:12:59.397Z,9.10
2018-04-14T21:15:27.191Z,9.83
2018-04-14T21:17:55.359Z,9.07
2018-04-14T21:20:23.126Z,9.50
2018-04-14T21:22:50.809Z,9.37
2018-04-14T21:25:18.960Z,10.60
2018-04-14T21:27:46.624Z,9.63
2018-04-14T21:30:14.489Z,10.50
2018-04-14T21:32:42.196Z,10.70
2018-04-14T21:35:11.363Z,11.20
2018-04-14T21:37:39.218Z,12.63
2018-04-14T21:40:07.060Z,11.70
2018-04-14T21:42:34.844Z,11.43
2018-04-14T21:45:02.498Z,11.70
2018-04-14T21:47:30.215Z,11.33
2018-04-14T21:49:58.861Z,11.70
2018-04-14T21:52:26.524Z,12.07
2018-04-14T21:54:54.588Z,11.70
2018-04-14T21:57:22.598Z,12.37
2018-04-14T21:59:51.044Z,11.63
2018-04-14T22:02:19.109Z,12.00
2018-04-14T22:04:46.954Z,11.80
2018-04-14T22:07:14.610Z,13.07
2018-04-14T22:09:42.510Z,13.03
2018-04-14T22:12:10.373Z,14.10
2018-04-14T22:14:38.235Z,13.63
2018-04-14T22:17:05.933Z,13.90
2018-04-14T22:19:33.608Z,14.73
2018-04-14T22:22:02.034Z,13.73
2018-04-14T22:24:29.864Z,16.47
2018-04-14T22:26:58.285Z,16.73
2018-04-14T22:29:26.159Z,16.33
2018-04-14T22:31:54.002Z,18.80
2018-04-14T22:34:22.610Z,17.70
2018-04-14T22:36:50.274Z,20.20
2018-04-14T22:39:17.973Z,18.77
2018-04-14T22:41:46.515Z,20.97
2018-04-14T22:44:14.379Z,22.80
2018-04-14T22:46:42.548Z,24.10
2018-04-14T22:49:10.549Z,26.77
2018-04-14T22:51:38.385Z,28.37
2018-04-14T22:54:06.092Z,29.83
2018-04-14T22:56:34.637Z,30.30
2018-04-14T22:59:02.300Z,32.80
2018-04-14T23:01:29.996Z,28.00
2018-04-14T23:03:59.269Z,33.93
2018-04-14T23:06:26.921Z,37.53
2018-04-14T23:08:54.657Z,38.40
2018-04-14T23:11:22.453Z,35.67
2018-04-14T23:13:50.109Z,37.77
2018-04-14T23:16:17.977Z,35.27
2018-04-14T23:18:45.632Z,39.63
2018-04-14T23:21:13.272Z,39.80
2018-04-14T23:23:41.160Z,26.77
2018-04-14T23:26:09.035Z,36.50
2018-04-14T23:28:36.687Z,39.17
2018-04-14T23:31:04.762Z,39.03
2018-04-14T23:33:32.570Z,36.77
2018-04-14T23:36:00.991Z,35.27
2018-04-14T23:38:28.696Z,32.57
2018-04-14T23:40:57.853Z,34.10
2018-04-14T23:43:25.630Z,37.53
2018-04-14T23:45:53.712Z,38.57
2018-04-14T23:48:21.562Z,38.83
2018-04-14T23:50:49.212Z,34.97
2018-04-14T23:53:16.917Z,38.00
2018-04-14T23:55:44.658Z,35.47
2018-04-14T23:58:12.522Z,38.87
